createdAt,value
2023-04-30T00:02:02.315Z,13.42
2023-04-30T00:07:07.186Z,13.38
2023-04-30T00:12:10.248Z,13.37
2023-04-30T00:17:12.322Z,13.40
2023-04-30T00:22:13.941Z,13.47
2023-04-30T00:27:15.635Z,13.57
2023-04-30T00:32:17.518Z,13.68
2023-04-30T00:37:19.214Z,13.73
2023-04-30T00:42:21.096Z,13.73
2023-04-30T00:47:22.898Z,13.68
2023-04-30T00:52:24.701Z,13.64
2023-04-30T00:57:26.825Z,13.61
2023-04-30T01:02:29.299Z,13.60
2023-04-30T01:07:32.147Z,13.61
2023-04-30T01:13:05.021Z,13.65
2023-04-30T01:18:18.672Z,13.68
2023-04-30T01:23:42.266Z,13.62
2023-04-30T01:28:46.656Z,13.58
2023-04-30T01:33:48.237Z,13.55
2023-04-30T01:39:14.050Z,13.43
2023-04-30T01:44:51.134Z,13.38
2023-04-30T01:50:18.893Z,13.30
2023-04-30T01:55:28.175Z,13.26
2023-04-30T02:00:30.960Z,13.25
2023-04-30T02:05:33.042Z,13.21
2023-04-30T02:10:35.015Z,13.22
2023-04-30T02:15:37.563Z,13.25
2023-04-30T02:20:39.192Z,13.28
2023-04-30T02:25:41.316Z,13.32
2023-04-30T02:30:43.111Z,13.40
2023-04-30T02:35:44.885Z,13.42
2023-04-30T02:40:46.485Z,13.43
2023-04-30T02:45:48.515Z,13.47
2023-04-30T02:50:50.328Z,13.51
2023-04-30T02:55:52.105Z,13.55
2023-04-30T03:00:54.040Z,13.53
2023-04-30T03:05:59.341Z,13.51
2023-04-30T03:11:01.486Z,13.51
2023-04-30T03:16:07.561Z,13.52
2023-04-30T03:21:09.659Z,13.48
2023-04-30T03:26:12.172Z,13.40
2023-04-30T03:31:14.130Z,13.32
2023-04-30T03:36:15.900Z,13.26
2023-04-30T03:41:19.929Z,13.17
2023-04-30T03:46:22.249Z,13.16
2023-04-30T03:51:24.390Z,13.19
2023-04-30T03:56:27.040Z,13.25
2023-04-30T04:01:29.915Z,13.29
2023-04-30T04:06:33.837Z,13.21
2023-04-30T04:11:36.669Z,13.07
2023-04-30T04:16:40.122Z,12.95
2023-04-30T04:21:42.385Z,12.89
2023-04-30T04:26:50.363Z,12.84
2023-04-30T04:31:53.440Z,12.73
2023-04-30T04:36:55.373Z,12.66
2023-04-30T04:41:58.166Z,12.62
2023-04-30T04:47:00.785Z,12.57
2023-04-30T04:52:02.725Z,12.58
2023-04-30T04:57:05.073Z,12.58
2023-04-30T05:02:07.685Z,12.55
2023-04-30T05:07:12.066Z,12.58
2023-04-30T05:12:19.050Z,12.66
2023-04-30T05:17:21.305Z,12.71
2023-04-30T05:22:23.121Z,12.76
2023-04-30T05:27:24.656Z,12.76
2023-04-30T05:32:27.757Z,12.81
2023-04-30T05:37:29.804Z,12.83
2023-04-30T05:42:32.845Z,12.80
2023-04-30T05:47:36.259Z,12.80
2023-04-30T05:52:38.748Z,12.78
2023-04-30T05:57:40.258Z,12.83
2023-04-30T06:02:41.975Z,12.87
2023-04-30T06:07:44.433Z,12.97
2023-04-30T06:12:49.508Z,13.09
2023-04-30T06:17:56.943Z,13.22
2023-04-30T06:23:03.007Z,13.26
2023-04-30T06:28:12.007Z,13.31
2023-04-30T06:33:18.959Z,13.42
2023-04-30T06:38:25.568Z,13.48
2023-04-30T06:43:31.040Z,13.60
2023-04-30T06:48:37.997Z,13.78
2023-04-30T06:53:43.182Z,13.96
2023-04-30T06:58:46.011Z,14.09
2023-04-30T07:03:50.316Z,14.27
2023-04-30T07:08:56.008Z,14.43
2023-04-30T07:13:58.673Z,14.55
2023-04-30T07:19:03.867Z,14.68
2023-04-30T07:24:10.701Z,14.84
2023-04-30T07:29:17.148Z,14.98
2023-04-30T07:34:20.958Z,15.10
2023-04-30T07:39:25.549Z,15.16
2023-04-30T07:44:32.235Z,15.25
2023-04-30T07:49:37.947Z,15.36
2023-04-30T07:54:46.220Z,15.51
2023-04-30T07:59:52.341Z,15.64
2023-04-30T08:05:19.176Z,15.77
2023-04-30T08:10:43.989Z,15.85
2023-04-30T08:16:06.770Z,15.91
2023-04-30T08:21:30.976Z,15.94
2023-04-30T08:26:56.868Z,15.97
2023-04-30T08:32:22.493Z,16.04
2023-04-30T08:37:47.029Z,16.11
2023-04-30T08:43:13.108Z,16.19
2023-04-30T08:48:37.690Z,16.27
2023-04-30T08:53:41.300Z,16.34
2023-04-30T08:58:47.523Z,16.38
2023-04-30T09:03:51.363Z,16.44
2023-04-30T09:08:55.922Z,16.50
2023-04-30T09:14:04.001Z,16.54
2023-04-30T09:19:10.344Z,16.55
2023-04-30T09:24:18.734Z,16.62
2023-04-30T09:29:37.837Z,16.63
2023-04-30T09:34:44.974Z,16.61
2023-04-30T09:39:54.623Z,16.68
2023-04-30T09:44:58.774Z,16.78
2023-04-30T09:50:00.742Z,16.85
2023-04-30T09:55:06.475Z,16.93
2023-04-30T10:00:14.712Z,17.00
2023-04-30T10:05:23.526Z,17.08
2023-04-30T10:10:32.873Z,17.14
2023-04-30T10:15:42.571Z,17.21
2023-04-30T10:20:51.196Z,17.31
2023-04-30T10:25:54.775Z,17.38
2023-04-30T10:30:57.648Z,17.51
2023-04-30T10:36:06.482Z,17.70
2023-04-30T10:41:13.133Z,17.89
2023-04-30T10:46:24.218Z,18.02
2023-04-30T10:51:44.900Z,18.10
2023-04-30T10:56:47.789Z,18.14
2023-04-30T11:02:03.122Z,18.15
2023-04-30T11:07:11.682Z,18.11
2023-04-30T11:12:31.795Z,18.17
2023-04-30T11:17:33.760Z,18.38
2023-04-30T11:22:38.579Z,18.59
2023-04-30T11:27:47.685Z,18.76
2023-04-30T11:32:50.219Z,18.88
2023-04-30T11:37:55.922Z,19.02
2023-04-30T11:42:58.883Z,19.13
2023-04-30T11:48:01.167Z,19.16
2023-04-30T11:53:05.742Z,19.17
2023-04-30T11:58:13.091Z,19.17
2023-04-30T12:03:19.780Z,19.23
2023-04-30T12:08:25.753Z,19.32
2023-04-30T12:13:31.439Z,19.44
2023-04-30T12:18:37.260Z,19.51
2023-04-30T12:23:41.407Z,19.53
2023-04-30T12:28:43.218Z,19.55
2023-04-30T12:33:54.040Z,19.56
2023-04-30T12:39:13.414Z,19.60
2023-04-30T12:44:27.844Z,19.65
2023-04-30T12:49:36.136Z,19.70
2023-04-30T12:54:38.711Z,19.79
2023-04-30T13:00:01.910Z,19.83
2023-04-30T13:05:05.465Z,19.83
2023-04-30T13:10:08.801Z,19.91
2023-04-30T13:15:11.945Z,20.05
2023-04-30T13:20:20.120Z,20.21
2023-04-30T13:25:26.285Z,20.42
2023-04-30T13:30:30.147Z,20.62
2023-04-30T13:35:31.985Z,20.64
2023-04-30T13:40:37.122Z,20.63
2023-04-30T13:45:42.952Z,20.66
2023-04-30T13:50:45.872Z,20.75
2023-04-30T13:55:47.521Z,20.83
2023-04-30T14:00:49.445Z,20.83
2023-04-30T14:05:51.517Z,20.81
2023-04-30T14:10:53.335Z,20.83
2023-04-30T14:15:56.139Z,20.84
2023-04-30T14:20:57.971Z,20.82
2023-04-30T14:25:59.862Z,20.88
2023-04-30T14:31:01.590Z,21.03
2023-04-30T14:36:04.070Z,21.19
2023-04-30T14:41:06.354Z,21.40
2023-04-30T14:46:09.579Z,21.62
2023-04-30T14:51:34.789Z,21.76
2023-04-30T14:56:40.611Z,21.81
2023-04-30T15:01:43.339Z,21.95
2023-04-30T15:06:45.160Z,22.12
2023-04-30T15:11:46.853Z,22.22
2023-04-30T15:16:48.971Z,22.19
2023-04-30T15:21:50.670Z,22.17
2023-04-30T15:26:54.445Z,22.19
2023-04-30T15:31:56.657Z,22.22
2023-04-30T15:36:59.019Z,22.28
2023-04-30T15:42:00.922Z,22.28
2023-04-30T15:47:02.622Z,22.18
2023-04-30T15:52:04.800Z,22.11
2023-04-30T15:57:09.614Z,22.16
2023-04-30T16:02:14.112Z,22.32
2023-04-30T16:07:17.239Z,22.42
2023-04-30T16:12:22.049Z,22.39
2023-04-30T16:17:25.107Z,22.23
2023-04-30T16:22:30.421Z,22.03
2023-04-30T16:27:33.630Z,21.85
2023-04-30T16:32:37.871Z,21.71
2023-04-30T16:37:39.873Z,21.72
2023-04-30T16:42:41.820Z,21.82
2023-04-30T16:47:44.731Z,21.92
2023-04-30T16:52:46.416Z,21.92
2023-04-30T16:57:48.094Z,21.93
2023-04-30T17:02:54.714Z,21.93
2023-04-30T17:07:58.235Z,21.98
2023-04-30T17:13:04.095Z,21.97
2023-04-30T17:18:10.761Z,21.93
2023-04-30T17:23:14.906Z,21.81
2023-04-30T17:28:17.126Z,21.73
2023-04-30T17:33:21.270Z,21.62
2023-04-30T17:38:25.271Z,21.48
2023-04-30T17:43:27.648Z,21.35
2023-04-30T17:48:32.880Z,21.16
2023-04-30T17:53:39.594Z,20.97
2023-04-30T17:58:47.446Z,20.81
2023-04-30T18:03:54.487Z,20.59
2023-04-30T18:09:03.192Z,20.42
2023-04-30T18:14:09.362Z,20.24
2023-04-30T18:19:17.046Z,20.07
2023-04-30T18:24:23.215Z,19.84
2023-04-30T18:29:29.916Z,19.66
2023-04-30T18:34:36.914Z,19.50
2023-04-30T18:39:41.073Z,19.31
2023-04-30T18:44:43.355Z,19.16
2023-04-30T18:49:48.663Z,19.03
2023-04-30T18:54:52.310Z,18.90
2023-04-30T18:59:57.775Z,18.78
2023-04-30T19:05:05.725Z,18.66
2023-04-30T19:10:11.718Z,18.54
2023-04-30T19:15:20.467Z,18.41
2023-04-30T19:20:26.562Z,18.33
2023-04-30T19:25:32.238Z,18.23
2023-04-30T19:30:36.584Z,18.13
2023-04-30T19:35:40.796Z,18.02
2023-04-30T19:40:47.704Z,17.87
2023-04-30T19:45:58.205Z,17.76
2023-04-30T19:51:05.406Z,17.64
2023-04-30T19:56:11.870Z,17.53
2023-04-30T20:01:20.262Z,17.44
2023-04-30T20:06:23.756Z,17.30
2023-04-30T20:11:27.922Z,17.25
2023-04-30T20:16:34.061Z,17.19
2023-04-30T20:21:37.897Z,17.14
2023-04-30T20:26:44.085Z,17.07
2023-04-30T20:31:47.781Z,17.00
2023-04-30T20:36:49.631Z,16.93
2023-04-30T20:41:54.464Z,16.86
2023-04-30T20:46:57.138Z,16.79
2023-04-30T20:52:00.401Z,16.68
2023-04-30T20:57:07.857Z,16.59
2023-04-30T21:02:12.319Z,16.49
2023-04-30T21:07:14.597Z,16.41
2023-04-30T21:12:20.603Z,16.34
2023-04-30T21:17:24.394Z,16.24
2023-04-30T21:22:26.403Z,16.17
2023-04-30T21:27:28.285Z,16.11
2023-04-30T21:32:29.933Z,16.03
2023-04-30T21:37:31.610Z,15.96
2023-04-30T21:42:33.997Z,15.88
2023-04-30T21:47:39.300Z,15.81
2023-04-30T21:52:42.760Z,15.73
2023-04-30T21:57:48.309Z,15.66
2023-04-30T22:02:53.004Z,15.57
2023-04-30T22:07:57.824Z,15.50
2023-04-30T22:13:00.446Z,15.43
2023-04-30T22:18:02.821Z,15.36
2023-04-30T22:23:05.779Z,15.26
2023-04-30T22:28:10.984Z,15.18
2023-04-30T22:33:13.993Z,15.12
2023-04-30T22:38:18.788Z,15.06
2023-04-30T22:43:23.380Z,15.02
2023-04-30T22:48:28.019Z,14.98
2023-04-30T22:53:30.671Z,14.93
2023-04-30T22:58:33.094Z,14.89
2023-04-30T23:03:35.727Z,14.85
2023-04-30T23:08:39.131Z,14.82
2023-04-30T23:13:41.188Z,14.77
2023-04-30T23:18:42.846Z,14.72
2023-04-30T23:23:44.497Z,14.69
2023-04-30T23:28:50.401Z,14.65
2023-04-30T23:33:54.959Z,14.61
2023-04-30T23:38:57.151Z,14.57
2023-04-30T23:43:58.785Z,14.52
2023-04-30T23:49:00.661Z,14.46
2023-04-30T23:54:05.261Z,14.41
2023-04-30T23:59:08.844Z,14.36
